sensor_id;sensor_type;location;lat;lon;timestamp;pressure;altitude;pressure_sealevel;temperature;humidity
45864;BME280;31579;52.354;16.974;2023-01-01T00:00:57;462.1;;;-146.1;100.0
45864;BME280;31579;52.354;16.974;2023-01-01T00:02:09;451.4;;;-146.1;100.0
45864;BME280;31579;52.354;16.974;2023-01-01T00:03:13;457.9;;;-146.1;100.0
45864;BME280;31579;52.354;16.974;2023-01-01T00:04:17;460.1;;;-146.1;100.0
45864;BME280;31579;52.354;16.974;2023-01-01T00:05:21;461.3;;;-146.1;100.0
45864;BME280;31579;52.354;16.974;2023-01-01T00:06:26;462.0;;;-146.1;100.0
45864;BME280;31579;52.354;16.974;2023-01-01T00:07:31;462.3;;;-146.1;100.0
45864;BME280;31579;52.354;16.974;2023-01-01T00:08:35;462.1;;;-146.1;100.0
45864;BME280;31579;52.354;16.974;2023-01-01T00:09:39;461.8;;;-146.1;100.0
45864;BME280;31579;52.354;16.974;2023-01-01T00:10:44;462.1;;;-146.1;100.0
45864;BME280;31579;52.354;16.974;2023-01-01T00:11:48;461.9;;;-146.1;100.0
45864;BME280;31579;52.354;16.974;2023-01-01T00:12:52;461.4;;;-146.1;100.0
45864;BME280;31579;52.354;16.974;2023-01-01T00:13:57;461.0;;;-146.1;100.0
45864;BME280;31579;52.354;16.974;2023-01-01T00:15:09;453.0;;;-146.1;100.0
45864;BME280;31579;52.354;16.974;2023-01-01T00:16:13;457.5;;;-146.1;100.0
45864;BME280;31579;52.354;16.974;2023-01-01T00:17:17;459.1;;;-146.1;100.0
45864;BME280;31579;52.354;16.974;2023-01-01T00:18:21;460.1;;;-146.1;100.0
45864;BME280;31579;52.354;16.974;2023-01-01T00:19:25;460.4;;;-146.1;100.0
45864;BME280;31579;52.354;16.974;2023-01-01T00:20:18;461.6;;;-146.1;100.0
45864;BME280;31579;52.354;16.974;2023-01-01T00:21:22;460.3;;;-146.1;100.0
45864;BME280;31579;52.354;16.974;2023-01-01T00:22:26;460.1;;;-146.1;100.0
45864;BME280;31579;52.354;16.974;2023-01-01T00:23:32;460.1;;;-146.1;100.0
45864;BME280;31579;52.354;16.974;2023-01-01T00:24:35;460.1;;;-146.1;100.0
45864;BME280;31579;52.354;16.974;2023-01-01T00:25:40;460.0;;;-146.1;100.0
45864;BME280;31579;52.354;16.974;2023-01-01T00:26:44;459.5;;;-146.1;100.0
45864;BME280;31579;52.354;16.974;2023-01-01T00:27:48;459.5;;;-146.1;100.0
45864;BME280;31579;52.354;16.974;2023-01-01T00:28:52;459.2;;;-146.1;100.0
45864;BME280;31579;52.354;16.974;2023-01-01T00:29:56;459.5;;;-146.1;100.0
45864;BME280;31579;52.354;16.974;2023-01-01T00:31:05;459.5;;;-146.1;100.0
45864;BME280;31579;52.354;16.974;2023-01-01T00:32:05;459.0;;;-146.1;100.0
45864;BME280;31579;52.354;16.974;2023-01-01T00:33:09;459.5;;;-146.1;100.0
45864;BME280;31579;52.354;16.974;2023-01-01T00:34:13;459.4;;;-146.1;100.0
45864;BME280;31579;52.354;16.974;2023-01-01T00:35:17;459.3;;;-146.1;100.0
45864;BME280;31579;52.354;16.974;2023-01-01T00:36:24;459.2;;;-146.1;100.0
45864;BME280;31579;52.354;16.974;2023-01-01T00:37:26;459.4;;;-146.1;100.0
45864;BME280;31579;52.354;16.974;2023-01-01T00:38:31;458.8;;;-146.1;100.0
45864;BME280;31579;52.354;16.974;2023-01-01T00:39:33;458.5;;;-146.1;100.0
45864;BME280;31579;52.354;16.974;2023-01-01T00:40:37;458.6;;;-146.1;100.0
45864;BME280;31579;52.354;16.974;2023-01-01T00:41:41;458.2;;;-146.1;100.0
45864;BME280;31579;52.354;16.974;2023-01-01T00:42:45;458.1;;;-146.1;100.0
45864;BME280;31579;52.354;16.974;2023-01-01T00:43:49;458.0;;;-146.1;100.0
45864;BME280;31579;52.354;16.974;2023-01-01T00:44:53;457.9;;;-146.1;100.0
45864;BME280;31579;52.354;16.974;2023-01-01T00:45:57;457.6;;;-146.1;100.0
45864;BME280;31579;52.354;16.974;2023-01-01T00:47:01;457.5;;;-146.1;100.0
45864;BME280;31579;52.354;16.974;2023-01-01T00:48:05;457.2;;;-146.1;100.0
45864;BME280;31579;52.354;16.974;2023-01-01T00:49:09;457.1;;;-146.1;100.0
45864;BME280;31579;52.354;16.974;2023-01-01T00:50:13;460.1;;;-146.1;100.0
45864;BME280;31579;52.354;16.974;2023-01-01T00:51:17;457.6;;;-146.1;100.0
45864;BME280;31579;52.354;16.974;2023-01-01T00:52:21;456.8;;;-146.1;100.0
45864;BME280;31579;52.354;16.974;2023-01-01T00:53:26;456.2;;;-146.1;100.0
45864;BME280;31579;52.354;16.974;2023-01-01T00:54:29;455.8;;;-146.1;100.0
45864;BME280;31579;52.354;16.974;2023-01-01T00:55:34;455.3;;;-146.1;100.0
45864;BME280;31579;52.354;16.974;2023-01-01T00:56:38;454.8;;;-146.1;100.0
45864;BME280;31579;52.354;16.974;2023-01-01T00:57:45;454.0;;;-146.1;100.0
45864;BME280;31579;52.354;16.974;2023-01-01T00:58:46;453.5;;;-146.1;100.0
45864;BME280;31579;52.354;16.974;2023-01-01T00:59:50;453.0;;;-146.1;100.0
45864;BME280;31579;52.354;16.974;2023-01-01T01:00:54;452.9;;;-146.1;100.0
45864;BME280;31579;52.354;16.974;2023-01-01T01:01:59;453.0;;;-146.1;100.0
45864;BME280;31579;52.354;16.974;2023-01-01T01:03:03;453.3;;;-146.1;100.0
45864;BME280;31579;52.354;16.974;2023-01-01T01:04:07;453.8;;;-146.1;100.0
45864;BME280;31579;52.354;16.974;2023-01-01T01:05:11;454.2;;;-146.1;100.0
45864;BME280;31579;52.354;16.974;2023-01-01T01:06:16;454.6;;;-146.1;100.0
45864;BME280;31579;52.354;16.974;2023-01-01T01:07:20;454.7;;;-146.1;100.0
45864;BME280;31579;52.354;16.974;2023-01-01T01:08:25;454.5;;;-146.1;100.0
45864;BME280;31579;52.354;16.974;2023-01-01T01:09:28;454.8;;;-146.1;100.0
45864;BME280;31579;52.354;16.974;2023-01-01T01:10:32;455.0;;;-146.1;100.0
45864;BME280;31579;52.354;16.974;2023-01-01T01:11:36;455.0;;;-146.1;100.0
45864;BME280;31579;52.354;16.974;2023-01-01T01:12:41;454.9;;;-146.1;100.0
45864;BME280;31579;52.354;16.974;2023-01-01T01:13:46;454.8;;;-146.1;100.0
45864;BME280;31579;52.354;16.974;2023-01-01T01:14:49;454.8;;;-146.1;100.0
45864;BME280;31579;52.354;16.974;2023-01-01T01:15:53;454.9;;;-146.1;100.0
45864;BME280;31579;52.354;16.974;2023-01-01T01:16:57;454.7;;;-146.1;100.0
45864;BME280;31579;52.354;16.974;2023-01-01T01:18:01;454.7;;;-146.1;100.0
45864;BME280;31579;52.354;16.974;2023-01-01T01:19:05;454.8;;;-146.1;100.0
45864;BME280;31579;52.354;16.974;2023-01-01T01:20:10;455.3;;;-146.1;100.0
45864;BME280;31579;52.354;16.974;2023-01-01T01:21:14;458.6;;;-146.1;100.0
45864;BME280;31579;52.354;16.974;2023-01-01T01:22:14;461.7;;;-146.1;100.0
45864;BME280;31579;52.354;16.974;2023-01-01T01:23:19;457.6;;;-146.1;100.0
45864;BME280;31579;52.354;16.974;2023-01-01T01:24:23;457.0;;;-146.1;100.0
45864;BME280;31579;52.354;16.974;2023-01-01T01:25:27;456.4;;;-146.1;100.0
45864;BME280;31579;52.354;16.974;2023-01-01T01:26:32;456.4;;;-146.1;100.0
45864;BME280;31579;52.354;16.974;2023-01-01T01:27:35;456.3;;;-146.1;100.0
45864;BME280;31579;52.354;16.974;2023-01-01T01:28:40;456.4;;;-146.1;100.0
45864;BME280;31579;52.354;16.974;2023-01-01T01:29:43;456.8;;;-146.1;100.0
45864;BME280;31579;52.354;16.974;2023-01-01T01:30:47;457.5;;;-146.1;100.0
45864;BME280;31579;52.354;16.974;2023-01-01T01:31:51;458.1;;;-146.1;100.0
45864;BME280;31579;52.354;16.974;2023-01-01T01:32:56;458.0;;;-146.1;100.0
45864;BME280;31579;52.354;16.974;2023-01-01T01:34:00;458.1;;;-146.1;100.0
45864;BME280;31579;52.354;16.974;2023-01-01T01:35:06;458.0;;;-146.1;100.0
45864;BME280;31579;52.354;16.974;2023-01-01T01:36:11;458.3;;;-146.1;100.0
45864;BME280;31579;52.354;16.974;2023-01-01T01:37:13;464.2;;;-146.1;100.0
45864;BME280;31579;52.354;16.974;2023-01-01T01:38:15;464.0;;;-146.1;100.0
45864;BME280;31579;52.354;16.974;2023-01-01T01:39:19;461.4;;;-146.1;100.0
45864;BME280;31579;52.354;16.974;2023-01-01T01:40:24;460.1;;;-146.1;100.0
45864;BME280;31579;52.354;16.974;2023-01-01T01:41:27;459.5;;;-146.1;100.0
45864;BME280;31579;52.354;16.974;2023-01-01T01:42:31;459.3;;;-146.1;100.0
45864;BME280;31579;52.354;16.974;2023-01-01T01:45:44;459.7;;;-146.1;100.0
45864;BME280;31579;52.354;16.974;2023-01-01T01:46:48;459.4;;;-146.1;100.0
45864;BME280;31579;52.354;16.974;2023-01-01T01:47:54;459.5;;;-146.1;100.0
45864;BME280;31579;52.354;16.974;2023-01-01T01:48:59;460.0;;;-146.1;100.0
45864;BME280;31579;52.354;16.974;2023-01-01T01:51:06;460.3;;;-146.1;100.0
45864;BME280;31579;52.354;16.974;2023-01-01T01:52:10;460.9;;;-146.1;100.0
45864;BME280;31579;52.354;16.974;2023-01-01T01:53:18;461.0;;;-146.1;100.0
45864;BME280;31579;52.354;16.974;2023-01-01T01:54:19;460.8;;;-146.1;100.0
45864;BME280;31579;52.354;16.974;2023-01-01T01:55:22;460.6;;;-146.1;100.0
45864;BME280;31579;52.354;16.974;2023-01-01T01:56:28;459.8;;;-146.1;100.0
45864;BME280;31579;52.354;16.974;2023-01-01T01:57:31;459.2;;;-146.1;100.0
45864;BME280;31579;52.354;16.974;2023-01-01T01:58:35;456.9;;;-146.1;100.0
45864;BME280;31579;52.354;16.974;2023-01-01T01:59:41;457.2;;;-146.1;100.0
45864;BME280;31579;52.354;16.974;2023-01-01T02:00:44;457.7;;;-146.1;100.0
45864;BME280;31579;52.354;16.974;2023-01-01T02:01:48;458.0;;;-146.1;100.0
45864;BME280;31579;52.354;16.974;2023-01-01T02:03:57;460.0;;;-146.1;100.0
45864;BME280;31579;52.354;16.974;2023-01-01T02:05:01;460.5;;;-146.1;100.0
45864;BME280;31579;52.354;16.974;2023-01-01T02:06:06;460.3;;;-146.1;100.0
45864;BME280;31579;52.354;16.974;2023-01-01T02:07:11;460.1;;;-146.1;100.0
45864;BME280;31579;52.354;16.974;2023-01-01T02:08:14;461.3;;;-146.1;100.0
45864;BME280;31579;52.354;16.974;2023-01-01T02:09:18;461.7;;;-146.1;100.0
45864;BME280;31579;52.354;16.974;2023-01-01T02:10:22;464.4;;;-146.1;100.0
45864;BME280;31579;52.354;16.974;2023-01-01T02:11:26;464.1;;;-146.1;100.0
45864;BME280;31579;52.354;16.974;2023-01-01T02:12:29;464.0;;;-146.1;100.0
45864;BME280;31579;52.354;16.974;2023-01-01T02:13:34;464.8;;;-146.1;100.0
45864;BME280;31579;52.354;16.974;2023-01-01T02:14:38;465.3;;;-146.1;100.0
45864;BME280;31579;52.354;16.974;2023-01-01T02:15:47;464.5;;;-146.1;100.0
45864;BME280;31579;52.354;16.974;2023-01-01T02:21:03;465.4;;;-146.1;100.0
45864;BME280;31579;52.354;16.974;2023-01-01T02:29:37;468.3;;;-146.1;100.0
45864;BME280;31579;52.354;16.974;2023-01-01T02:30:39;466.7;;;-146.1;100.0
45864;BME280;31579;52.354;16.974;2023-01-01T02:31:44;466.6;;;-146.1;100.0
45864;BME280;31579;52.354;16.974;2023-01-01T02:33:51;467.5;;;-146.1;100.0
45864;BME280;31579;52.354;16.974;2023-01-01T02:36:00;470.8;;;-146.1;100.0
45864;BME280;31579;52.354;16.974;2023-01-01T02:37:01;478.7;;;-146.1;100.0
45864;BME280;31579;52.354;16.974;2023-01-01T02:38:09;477.7;;;-146.1;100.0
45864;BME280;31579;52.354;16.974;2023-01-01T02:39:10;473.7;;;-146.1;100.0
45864;BME280;31579;52.354;16.974;2023-01-01T02:40:14;474.4;;;-146.1;100.0
45864;BME280;31579;52.354;16.974;2023-01-01T02:41:20;473.1;;;-146.1;100.0
45864;BME280;31579;52.354;16.974;2023-01-01T02:42:22;473.9;;;-146.1;100.0
45864;BME280;31579;52.354;16.974;2023-01-01T02:43:26;473.5;;;-146.1;100.0
45864;BME280;31579;52.354;16.974;2023-01-01T02:44:30;478.5;;;-146.1;100.0
45864;BME280;31579;52.354;16.974;2023-01-01T02:45:34;479.9;;;-146.1;100.0
45864;BME280;31579;52.354;16.974;2023-01-01T02:46:38;479.8;;;-146.1;100.0
45864;BME280;31579;52.354;16.974;2023-01-01T02:47:42;479.9;;;-146.1;100.0
45864;BME280;31579;52.354;16.974;2023-01-01T02:50:54;484.8;;;-146.1;100.0
45864;BME280;31579;52.354;16.974;2023-01-01T02:52:03;484.0;;;-146.1;100.0
45864;BME280;31579;52.354;16.974;2023-01-01T02:53:06;481.6;;;-146.1;100.0
45864;BME280;31579;52.354;16.974;2023-01-01T02:55:15;482.5;;;-146.1;100.0
45864;BME280;31579;52.354;16.974;2023-01-01T02:58:27;485.6;;;-146.1;100.0
45864;BME280;31579;52.354;16.974;2023-01-01T02:59:31;490.2;;;-146.1;100.0
45864;BME280;31579;52.354;16.974;2023-01-01T03:00:31;488.0;;;-146.1;100.0
45864;BME280;31579;52.354;16.974;2023-01-01T03:04:06;492.6;;;-146.1;100.0
45864;BME280;31579;52.354;16.974;2023-01-01T03:07:43;488.0;;;-146.1;100.0
45864;BME280;31579;52.354;16.974;2023-01-01T03:11:11;494.8;;;-146.1;100.0
45864;BME280;31579;52.354;16.974;2023-01-01T03:12:19;493.6;;;-146.1;100.0
45864;BME280;31579;52.354;16.974;2023-01-01T03:16:34;490.7;;;-146.1;100.0
45864;BME280;31579;52.354;16.974;2023-01-01T03:17:34;490.9;;;-146.1;100.0
45864;BME280;31579;52.354;16.974;2023-01-01T03:19:42;487.6;;;-146.1;100.0
45864;BME280;31579;52.354;16.974;2023-01-01T03:20:47;486.8;;;-146.1;100.0
45864;BME280;31579;52.354;16.974;2023-01-01T03:22:54;484.1;;;-146.1;100.0
45864;BME280;31579;52.354;16.974;2023-01-01T03:23:58;487.1;;;-146.1;100.0
45864;BME280;31579;52.354;16.974;2023-01-01T03:25:11;484.6;;;-146.1;100.0
45864;BME280;31579;52.354;16.974;2023-01-01T03:26:07;487.7;;;-146.1;100.0
45864;BME280;31579;52.354;16.974;2023-01-01T03:27:12;487.8;;;-146.1;100.0
45864;BME280;31579;52.354;16.974;2023-01-01T03:28:17;489.2;;;-146.1;100.0
45864;BME280;31579;52.354;16.974;2023-01-01T03:29:18;486.1;;;-146.1;100.0
45864;BME280;31579;52.354;16.974;2023-01-01T03:30:22;489.1;;;-146.1;100.0
45864;BME280;31579;52.354;16.974;2023-01-01T03:31:26;490.5;;;-146.1;100.0
45864;BME280;31579;52.354;16.974;2023-01-01T03:32:33;495.4;;;-146.1;100.0
45864;BME280;31579;52.354;16.974;2023-01-01T03:34:38;500.4;;;-146.1;100.0
45864;BME280;31579;52.354;16.974;2023-01-01T03:35:46;497.8;;;-146.1;100.0
45864;BME280;31579;52.354;16.974;2023-01-01T03:36:47;508.8;;;-146.1;100.0
45864;BME280;31579;52.354;16.974;2023-01-01T03:37:50;511.4;;;-146.1;100.0
45864;BME280;31579;52.354;16.974;2023-01-01T03:38:58;510.3;;;-146.1;100.0
45864;BME280;31579;52.354;16.974;2023-01-01T03:39:58;514.3;;;-146.1;100.0
45864;BME280;31579;52.354;16.974;2023-01-01T03:43:26;523.8;;;-146.1;100.0
45864;BME280;31579;52.354;16.974;2023-01-01T03:46:30;546.4;;;-146.1;100.0
45864;BME280;31579;52.354;16.974;2023-01-01T03:47:33;568.0;;;-146.1;100.0
45864;BME280;31579;52.354;16.974;2023-01-01T03:48:38;576.0;;;-146.1;100.0
45864;BME280;31579;52.354;16.974;2023-01-01T03:49:41;571.6;;;-146.1;100.0
45864;BME280;31579;52.354;16.974;2023-01-01T03:50:49;583.7;;;-146.1;100.0
45864;BME280;31579;52.354;16.974;2023-01-01T03:53:58;603.8;;;-146.1;100.0
45864;BME280;31579;52.354;16.974;2023-01-01T04:00:23;726.0;;;-146.1;100.0
45864;BME280;31579;52.354;16.974;2023-01-01T04:02:32;735.3;;;-146.1;100.0
45864;BME280;31579;52.354;16.974;2023-01-01T04:03:34;739.1;;;-146.1;100.0
45864;BME280;31579;52.354;16.974;2023-01-01T04:04:38;731.0;;;-146.1;100.0
45864;BME280;31579;52.354;16.974;2023-01-01T04:05:42;712.2;;;-146.1;100.0
45864;BME280;31579;52.354;16.974;2023-01-01T04:06:46;711.4;;;-146.1;100.0
45864;BME280;31579;52.354;16.974;2023-01-01T04:07:50;692.2;;;-146.1;100.0
45864;BME280;31579;52.354;16.974;2023-01-01T04:08:56;684.8;;;-146.1;100.0
45864;BME280;31579;52.354;16.974;2023-01-01T04:10:00;683.0;;;-146.1;100.0
45864;BME280;31579;52.354;16.974;2023-01-01T04:11:05;686.9;;;-146.1;100.0
45864;BME280;31579;52.354;16.974;2023-01-01T04:12:08;688.9;;;-146.1;100.0
45864;BME280;31579;52.354;16.974;2023-01-01T04:13:11;691.7;;;-146.1;100.0
45864;BME280;31579;52.354;16.974;2023-01-01T04:15:20;696.8;;;-146.1;100.0
45864;BME280;31579;52.354;16.974;2023-01-01T04:16:23;703.3;;;-146.1;100.0
45864;BME280;31579;52.354;16.974;2023-01-01T04:17:27;703.5;;;-146.1;100.0
45864;BME280;31579;52.354;16.974;2023-01-01T04:18:31;682.5;;;-146.1;100.0
45864;BME280;31579;52.354;16.974;2023-01-01T04:19:36;689.2;;;-146.1;100.0
45864;BME280;31579;52.354;16.974;2023-01-01T04:20:39;674.1;;;-146.1;100.0
45864;BME280;31579;52.354;16.974;2023-01-01T04:21:44;676.1;;;-146.1;100.0
45864;BME280;31579;52.354;16.974;2023-01-01T04:22:49;670.6;;;-146.1;100.0
45864;BME280;31579;52.354;16.974;2023-01-01T04:23:52;678.2;;;-146.1;100.0
45864;BME280;31579;52.354;16.974;2023-01-01T04:24:56;687.8;;;-146.1;100.0
45864;BME280;31579;52.354;16.974;2023-01-01T04:26:01;695.9;;;-146.1;100.0
45864;BME280;31579;52.354;16.974;2023-01-01T04:27:07;697.8;;;-146.1;100.0
45864;BME280;31579;52.354;16.974;2023-01-01T04:28:09;719.0;;;-146.1;100.0
45864;BME280;31579;52.354;16.974;2023-01-01T04:29:14;724.8;;;-146.1;100.0
45864;BME280;31579;52.354;16.974;2023-01-01T04:30:18;720.3;;;-146.1;100.0
45864;BME280;31579;52.354;16.974;2023-01-01T04:31:21;714.1;;;-146.1;100.0
45864;BME280;31579;52.354;16.974;2023-01-01T04:32:25;710.8;;;-146.1;100.0
45864;BME280;31579;52.354;16.974;2023-01-01T04:33:29;702.5;;;-146.1;100.0
45864;BME280;31579;52.354;16.974;2023-01-01T04:34:34;715.9;;;-146.1;100.0
45864;BME280;31579;52.354;16.974;2023-01-01T04:35:37;734.8;;;-146.1;100.0
45864;BME280;31579;52.354;16.974;2023-01-01T04:36:42;731.8;;;-146.1;100.0
45864;BME280;31579;52.354;16.974;2023-01-01T04:37:45;736.3;;;-146.1;100.0
45864;BME280;31579;52.354;16.974;2023-01-01T04:38:50;737.0;;;-146.1;100.0
45864;BME280;31579;52.354;16.974;2023-01-01T04:39:53;746.2;;;-146.1;100.0
45864;BME280;31579;52.354;16.974;2023-01-01T04:40:58;742.2;;;-146.1;100.0
45864;BME280;31579;52.354;16.974;2023-01-01T04:42:02;733.1;;;-146.1;100.0
45864;BME280;31579;52.354;16.974;2023-01-01T04:43:06;719.8;;;-146.1;100.0
45864;BME280;31579;52.354;16.974;2023-01-01T04:44:09;723.2;;;-146.1;100.0
45864;BME280;31579;52.354;16.974;2023-01-01T04:45:14;738.4;;;-146.1;100.0
45864;BME280;31579;52.354;16.974;2023-01-01T04:46:18;753.8;;;-146.1;100.0
45864;BME280;31579;52.354;16.974;2023-01-01T04:47:21;759.1;;;-146.1;100.0
45864;BME280;31579;52.354;16.974;2023-01-01T04:48:26;763.2;;;-146.1;100.0
45864;BME280;31579;52.354;16.974;2023-01-01T04:49:29;770.2;;;-146.1;100.0
45864;BME280;31579;52.354;16.974;2023-01-01T04:50:34;775.6;;;-146.1;100.0
45864;BME280;31579;52.354;16.974;2023-01-01T04:51:38;775.0;;;-146.1;100.0
45864;BME280;31579;52.354;16.974;2023-01-01T04:52:42;776.9;;;-146.1;100.0
45864;BME280;31579;52.354;16.974;2023-01-01T04:53:48;783.1;;;-146.1;100.0
45864;BME280;31579;52.354;16.974;2023-01-01T04:54:51;783.6;;;-146.1;100.0
45864;BME280;31579;52.354;16.974;2023-01-01T04:55:57;786.0;;;-146.1;100.0
45864;BME280;31579;52.354;16.974;2023-01-01T04:57:01;786.1;;;-146.1;100.0
45864;BME280;31579;52.354;16.974;2023-01-01T04:58:06;784.2;;;-146.1;100.0
45864;BME280;31579;52.354;16.974;2023-01-01T04:59:09;784.9;;;-146.1;100.0
45864;BME280;31579;52.354;16.974;2023-01-01T05:00:14;791.8;;;-146.1;100.0
45864;BME280;31579;52.354;16.974;2023-01-01T05:01:20;798.3;;;-146.1;100.0
45864;BME280;31579;52.354;16.974;2023-01-01T05:02:22;793.4;;;-146.1;100.0
45864;BME280;31579;52.354;16.974;2023-01-01T05:03:26;784.5;;;-146.1;100.0
45864;BME280;31579;52.354;16.974;2023-01-01T05:04:29;782.8;;;-146.1;100.0
45864;BME280;31579;52.354;16.974;2023-01-01T05:05:33;784.7;;;-146.1;100.0
45864;BME280;31579;52.354;16.974;2023-01-01T05:06:38;791.8;;;-146.1;100.0
45864;BME280;31579;52.354;16.974;2023-01-01T05:07:42;787.1;;;-146.1;100.0
45864;BME280;31579;52.354;16.974;2023-01-01T05:08:47;794.3;;;-146.1;100.0
45864;BME280;31579;52.354;16.974;2023-01-01T05:09:50;797.2;;;-146.1;100.0
45864;BME280;31579;52.354;16.974;2023-01-01T05:10:58;791.1;;;-146.1;100.0
45864;BME280;31579;52.354;16.974;2023-01-01T05:11:57;787.2;;;-146.1;100.0
45864;BME280;31579;52.354;16.974;2023-01-01T05:13:04;791.9;;;-146.1;100.0
45864;BME280;31579;52.354;16.974;2023-01-01T05:14:06;794.6;;;-146.1;100.0
45864;BME280;31579;52.354;16.974;2023-01-01T05:15:10;799.0;;;-146.1;100.0
45864;BME280;31579;52.354;16.974;2023-01-01T05:16:15;804.9;;;-146.1;100.0
45864;BME280;31579;52.354;16.974;2023-01-01T05:17:18;813.2;;;-146.1;100.0
45864;BME280;31579;52.354;16.974;2023-01-01T05:18:23;819.4;;;-146.1;100.0
45864;BME280;31579;52.354;16.974;2023-01-01T05:19:27;832.5;;;-146.1;100.0
45864;BME280;31579;52.354;16.974;2023-01-01T05:20:31;840.5;;;-146.1;100.0
45864;BME280;31579;52.354;16.974;2023-01-01T05:21:36;849.7;;;-146.1;100.0
45864;BME280;31579;52.354;16.974;2023-01-01T05:22:39;861.8;;;-146.1;100.0
45864;BME280;31579;52.354;16.974;2023-01-01T05:23:43;873.6;;;-146.1;100.0
45864;BME280;31579;52.354;16.974;2023-01-01T05:24:48;880.2;;;-146.1;100.0
45864;BME280;31579;52.354;16.974;2023-01-01T05:25:52;894.9;;;-146.1;100.0
45864;BME280;31579;52.354;16.974;2023-01-01T05:26:55;901.4;;;-146.1;100.0
45864;BME280;31579;52.354;16.974;2023-01-01T05:28:00;914.3;;;-146.1;100.0
45864;BME280;31579;52.354;16.974;2023-01-01T05:29:04;930.6;;;-146.1;100.0
45864;BME280;31579;52.354;16.974;2023-01-01T05:30:08;960.7;;;-146.1;100.0
45864;BME280;31579;52.354;16.974;2023-01-01T05:31:13;986.8;;;-146.1;100.0
45864;BME280;31579;52.354;16.974;2023-01-01T05:32:16;1008.0;;;-146.1;100.0
45864;BME280;31579;52.354;16.974;2023-01-01T05:33:20;1036.2;;;-146.1;100.0
45864;BME280;31579;52.354;16.974;2023-01-01T05:34:24;1045.9;;;-146.1;100.0
45864;BME280;31579;52.354;16.974;2023-01-01T05:35:28;1066.7;;;-146.1;100.0
45864;BME280;31579;52.354;16.974;2023-01-01T05:36:33;1081.5;;;-146.1;100.0
45864;BME280;31579;52.354;16.974;2023-01-01T05:37:36;1100.2;;;-146.1;100.0
45864;BME280;31579;52.354;16.974;2023-01-01T05:38:40;1114.0;;;-146.1;100.0
45864;BME280;31579;52.354;16.974;2023-01-01T05:39:44;1130.2;;;-146.1;100.0
45864;BME280;31579;52.354;16.974;2023-01-01T05:40:48;1146.5;;;-146.1;100.0
45864;BME280;31579;52.354;16.974;2023-01-01T05:41:52;1152.7;;;-146.1;100.0
45864;BME280;31579;52.354;16.974;2023-01-01T05:42:56;1157.6;;;-146.1;100.0
45864;BME280;31579;52.354;16.974;2023-01-01T05:44:00;1163.0;;;-146.1;100.0
45864;BME280;31579;52.354;16.974;2023-01-01T05:45:04;1166.7;;;-146.1;100.0
45864;BME280;31579;52.354;16.974;2023-01-01T05:47:12;1169.7;;;-146.1;100.0
45864;BME280;31579;52.354;16.974;2023-01-01T05:48:16;1169.6;;;-146.1;100.0
45864;BME280;31579;52.354;16.974;2023-01-01T05:49:20;1169.7;;;-146.1;100.0
45864;BME280;31579;52.354;16.974;2023-01-01T05:50:24;1172.5;;;-146.1;100.0
45864;BME280;31579;52.354;16.974;2023-01-01T05:51:28;1172.9;;;-146.1;100.0
45864;BME280;31579;52.354;16.974;2023-01-01T05:52:32;1172.7;;;-146.1;100.0
45864;BME280;31579;52.354;16.974;2023-01-01T05:53:36;1172.3;;;-146.1;100.0
45864;BME280;31579;52.354;16.974;2023-01-01T05:54:40;1172.1;;;-146.1;100.0
45864;BME280;31579;52.354;16.974;2023-01-01T05:55:44;1171.5;;;-146.1;100.0
45864;BME280;31579;52.354;16.974;2023-01-01T05:56:48;1170.9;;;-146.1;100.0
45864;BME280;31579;52.354;16.974;2023-01-01T05:57:52;1170.4;;;-146.1;100.0
45864;BME280;31579;52.354;16.974;2023-01-01T05:58:56;1169.9;;;-146.1;100.0
45864;BME280;31579;52.354;16.974;2023-01-01T06:00:00;1169.7;;;-146.1;100.0
45864;BME280;31579;52.354;16.974;2023-01-01T06:01:08;1169.7;;;-146.1;100.0
45864;BME280;31579;52.354;16.974;2023-01-01T06:02:08;1169.1;;;-146.1;100.0
45864;BME280;31579;52.354;16.974;2023-01-01T06:03:12;1168.3;;;-146.1;100.0
45864;BME280;31579;52.354;16.974;2023-01-01T06:04:16;1168.0;;;-146.1;100.0
45864;BME280;31579;52.354;16.974;2023-01-01T06:05:20;1168.2;;;-146.1;100.0
45864;BME280;31579;52.354;16.974;2023-01-01T06:06:24;1167.8;;;-146.1;100.0
45864;BME280;31579;52.354;16.974;2023-01-01T06:07:28;1167.5;;;-146.1;100.0
45864;BME280;31579;52.354;16.974;2023-01-01T06:08:32;1167.3;;;-146.1;100.0
45864;BME280;31579;52.354;16.974;2023-01-01T06:09:36;1167.2;;;-146.1;100.0
45864;BME280;31579;52.354;16.974;2023-01-01T06:10:40;1166.7;;;-146.1;100.0
45864;BME280;31579;52.354;16.974;2023-01-01T06:11:44;1166.4;;;-146.1;100.0
45864;BME280;31579;52.354;16.974;2023-01-01T06:12:48;1166.3;;;-146.1;100.0
45864;BME280;31579;52.354;16.974;2023-01-01T06:13:52;1166.6;;;-146.1;100.0
45864;BME280;31579;52.354;16.974;2023-01-01T06:14:56;1166.5;;;-146.1;100.0
45864;BME280;31579;52.354;16.974;2023-01-01T06:16:00;1167.1;;;-146.1;100.0
45864;BME280;31579;52.354;16.974;2023-01-01T06:17:04;1167.1;;;-146.1;100.0
45864;BME280;31579;52.354;16.974;2023-01-01T06:18:08;1166.6;;;-146.1;100.0
45864;BME280;31579;52.354;16.974;2023-01-01T06:19:12;1166.1;;;-146.1;100.0
45864;BME280;31579;52.354;16.974;2023-01-01T06:20:16;1165.5;;;-146.1;100.0
45864;BME280;31579;52.354;16.974;2023-01-01T06:21:20;1164.9;;;-146.1;100.0
45864;BME280;31579;52.354;16.974;2023-01-01T06:22:25;1164.4;;;-146.1;100.0
45864;BME280;31579;52.354;16.974;2023-01-01T06:23:29;1163.6;;;-146.1;100.0
45864;BME280;31579;52.354;16.974;2023-01-01T06:24:33;1163.6;;;-146.1;100.0
45864;BME280;31579;52.354;16.974;2023-01-01T06:25:37;1163.3;;;-146.1;100.0
45864;BME280;31579;52.354;16.974;2023-01-01T06:26:41;1163.2;;;-146.1;100.0
45864;BME280;31579;52.354;16.974;2023-01-01T06:27:45;1162.6;;;-146.1;100.0
45864;BME280;31579;52.354;16.974;2023-01-01T06:28:49;1162.1;;;-146.1;100.0
45864;BME280;31579;52.354;16.974;2023-01-01T06:29:53;1162.0;;;-146.1;100.0
45864;BME280;31579;52.354;16.974;2023-01-01T06:30:58;1160.4;;;-146.1;100.0
45864;BME280;31579;52.354;16.974;2023-01-01T06:32:01;1159.7;;;-146.1;100.0
45864;BME280;31579;52.354;16.974;2023-01-01T06:33:06;1159.9;;;-146.1;100.0
45864;BME280;31579;52.354;16.974;2023-01-01T06:34:10;1160.1;;;-146.1;100.0
45864;BME280;31579;52.354;16.974;2023-01-01T06:35:14;1160.0;;;-146.1;100.0
45864;BME280;31579;52.354;16.974;2023-01-01T06:36:19;1159.4;;;-146.1;100.0